UPSVAC Airport Information Service

East Midlands Airport

ICAO: EGNX Country: United Kingdom
Latitude: 52.8311 Longitude: -1.32805
Latest Arrival : ABR1537(A) (EDDV-EGNX) Latest Departure : UPSJUMP (EGNX-KONT)


WX CaptureLIVE
Data provided by noaa.gov | Fetched at 09:59:46

METAR : EGNX 270920Z 24008KT 9999 8000NW VCFG FEW014 SCT029 05/05 Q1010

TAF : EGNX 270722Z 2707/2806 25009KT 9999 FEW008 SCT012 TEMPO 2707/2712 3000 BR BKN008 PROB30 TEMPO 2712/2716 BKN008 BECMG 2718/2721 -RA BKN005 TEMPO 2721/2806 4000 RA BECMG 2800/2803 10010KT


Runway Data for EGNX
Data provided by openaviationdata.com

Runway ID Mag Var Hdg Length Elevation Surface ILS Freq ILS Id ILS Slope
9 -1 89° 9475 ft 306 ft Asphalt 109.35 IEMW 3
27 -1 269° 9475 ft 306 ft Asphalt 109.35 IEME 3

East Midlands Airport, United Kingdom
Use only for reference purposes



Not for navigational purposes.